Ault Field, Washington
Current Conditions -  °F | °C
As of 8:56 PM on Friday 19 Dec 2014 (Local Time) from KNUW Reporting Station
Overcast Overcast  
Wind Chill: 51°   Ceiling: 12000
Heat Index: 51°   Visibility: 10mi
Dew Point: 39°   Wind: 22mph
Humidity: 63%   Direction: 140°SE
Pressure: 29.85"   Gusts: 31mph
Location:  48.3182°N, 122.634°W
Report Text: KNUW 200456Z 14019G27KT 10SM FEW019 SCT042 BKN120 OVC160 11/04 A2985 RMK AO2 PK WND 13028/0451 SLP113 T01060039 VISNO E $
Loading
Personal Weather Stations






























Interactive Weather Map New forecast layout! Learn more

10-Day Weather Forecast

Advertisements
Track Severe Weather on mobile